createdAt,value
2018-03-28T00:03:09.474Z,80.24
2018-03-28T00:09:14.079Z,80.25
2018-03-28T00:15:18.833Z,80.03
2018-03-28T00:21:23.619Z,80.16
2018-03-28T00:27:28.145Z,79.94
2018-03-28T00:33:32.624Z,79.57
2018-03-28T00:39:37.287Z,79.57
2018-03-28T00:45:42.543Z,80.09
2018-03-28T00:51:48.402Z,79.37
2018-03-28T00:57:53.019Z,79.88
2018-03-28T01:03:57.678Z,79.91
2018-03-28T01:10:02.200Z,80.23
2018-03-28T01:16:06.767Z,80.27
2018-03-28T01:22:11.410Z,80.22
2018-03-28T01:28:16.002Z,80.41
2018-03-28T01:34:20.598Z,80.42
2018-03-28T01:40:25.097Z,80.46
2018-03-28T01:46:29.775Z,80.32
2018-03-28T01:52:34.259Z,80.31
2018-03-28T01:58:38.736Z,80.42
2018-03-28T02:04:44.018Z,79.95
2018-03-28T02:10:50.276Z,80.39
2018-03-28T02:16:55.526Z,80.43
2018-03-28T02:23:00.018Z,80.67
2018-03-28T02:29:04.561Z,80.23
2018-03-28T02:35:09.403Z,80.44
2018-03-28T02:41:14.693Z,80.66
2018-03-28T02:47:19.424Z,80.72
2018-03-28T02:53:23.979Z,80.90
2018-03-28T02:59:28.636Z,81.19
2018-03-28T03:05:33.177Z,80.92
2018-03-28T03:11:37.708Z,81.09
2018-03-28T03:17:42.989Z,81.69
2018-03-28T03:23:47.849Z,81.61
2018-03-28T03:29:53.110Z,81.28
2018-03-28T03:35:57.563Z,81.77
2018-03-28T03:42:03.065Z,81.83
2018-03-28T03:48:07.652Z,81.67
2018-03-28T03:54:12.911Z,81.77
2018-03-28T04:00:17.425Z,81.43
2018-03-28T04:06:22.781Z,81.31
2018-03-28T04:12:27.317Z,81.48
2018-03-28T04:18:32.055Z,81.84
2018-03-28T04:24:36.558Z,81.90
2018-03-28T04:30:41.785Z,81.55
2018-03-28T04:36:46.722Z,81.88
2018-03-28T04:42:51.950Z,82.31
2018-03-28T04:48:56.570Z,82.32
2018-03-28T04:55:01.032Z,82.20
2018-03-28T05:01:05.491Z,82.49
2018-03-28T05:07:10.033Z,82.28
2018-03-28T05:13:15.517Z,82.21
2018-03-28T05:19:20.203Z,82.06
2018-03-28T05:25:24.710Z,82.00
2018-03-28T05:31:29.934Z,82.33
2018-03-28T05:37:34.523Z,81.67
2018-03-28T05:43:39.247Z,81.53
2018-03-28T05:49:44.845Z,81.69
2018-03-28T05:55:50.157Z,81.69
2018-03-28T06:01:54.698Z,82.01
2018-03-28T06:07:59.313Z,81.60
2018-03-28T06:14:04.112Z,81.37
2018-03-28T06:20:08.666Z,81.55
2018-03-28T06:26:14.159Z,81.25
2018-03-28T06:32:19.860Z,80.96
2018-03-28T06:38:24.371Z,80.75
2018-03-28T06:44:28.884Z,81.07
2018-03-28T06:50:33.355Z,81.14
2018-03-28T06:56:37.872Z,81.51
2018-03-28T07:02:43.170Z,80.64
2018-03-28T07:08:48.061Z,81.06
2018-03-28T07:14:52.659Z,81.38
2018-03-28T07:20:58.137Z,80.96
2018-03-28T07:27:02.662Z,80.62
2018-03-28T07:33:07.131Z,81.16
2018-03-28T07:39:13.177Z,80.71
2018-03-28T07:45:18.502Z,80.87
2018-03-28T07:51:23.389Z,80.12
2018-03-28T07:57:27.959Z,80.01
2018-03-28T08:03:32.454Z,80.07
2018-03-28T08:09:37.716Z,80.60
2018-03-28T08:15:42.273Z,80.99
2018-03-28T08:21:46.759Z,80.75
2018-03-28T08:27:51.332Z,80.25
2018-03-28T08:33:55.880Z,80.45
2018-03-28T08:40:01.163Z,80.29
2018-03-28T08:46:05.588Z,80.30
2018-03-28T08:52:10.142Z,79.91
2018-03-28T08:58:14.675Z,80.61
2018-03-28T09:04:19.799Z,79.68
2018-03-28T09:10:24.380Z,79.53
2018-03-28T09:16:29.763Z,79.47
2018-03-28T09:22:34.236Z,79.73
2018-03-28T09:28:38.815Z,79.55
2018-03-28T09:34:43.433Z,79.58
2018-03-28T09:40:49.068Z,78.98
2018-03-28T09:46:53.683Z,78.58
2018-03-28T09:52:58.192Z,77.56
2018-03-28T09:59:02.678Z,77.55
2018-03-28T10:05:07.265Z,77.55
2018-03-28T10:11:12.069Z,77.20
2018-03-28T10:17:17.070Z,77.82
2018-03-28T10:23:22.401Z,76.09
2018-03-28T10:29:27.004Z,76.04
2018-03-28T10:35:31.499Z,74.33
2018-03-28T10:41:36.064Z,72.80
2018-03-28T10:47:40.918Z,73.71
2018-03-28T10:53:45.424Z,74.25
2018-03-28T10:59:50.080Z,74.54
2018-03-28T11:05:54.610Z,73.62
2018-03-28T11:11:59.248Z,73.07
2018-03-28T11:18:04.742Z,74.20
2018-03-28T11:24:09.356Z,74.65
2018-03-28T11:30:14.042Z,73.21
2018-03-28T11:36:20.563Z,73.71
2018-03-28T11:42:25.093Z,72.62
2018-03-28T11:48:29.747Z,72.12
2018-03-28T11:54:34.309Z,74.00
2018-03-28T12:00:39.620Z,75.00
2018-03-28T12:06:44.195Z,75.26
2018-03-28T12:12:48.680Z,74.47
2018-03-28T12:18:53.464Z,73.21
2018-03-28T12:24:58.030Z,72.17
2018-03-28T12:31:02.529Z,69.31
2018-03-28T12:37:07.949Z,67.75
2018-03-28T12:43:12.769Z,68.13
2018-03-28T12:49:17.297Z,68.06
2018-03-28T12:55:22.253Z,68.09
2018-03-28T13:01:26.867Z,69.04
2018-03-28T13:07:32.372Z,69.26
2018-03-28T13:13:36.991Z,68.28
2018-03-28T13:19:41.599Z,68.58
2018-03-28T13:25:46.819Z,67.96
2018-03-28T13:31:51.961Z,67.97
2018-03-28T13:37:57.344Z,67.31
2018-03-28T13:44:01.877Z,67.79
2018-03-28T13:50:06.382Z,68.57
2018-03-28T13:56:10.905Z,68.21
2018-03-28T14:02:15.477Z,67.47
2018-03-28T14:08:20.153Z,68.17
2018-03-28T14:14:24.644Z,68.80
2018-03-28T14:20:29.165Z,68.39
2018-03-28T14:26:34.491Z,69.14
2018-03-28T14:32:39.760Z,69.28
2018-03-28T14:38:44.322Z,71.05
2018-03-28T14:44:49.283Z,71.40
2018-03-28T14:50:53.811Z,71.89
2018-03-28T14:56:58.297Z,73.31
2018-03-28T15:03:02.798Z,74.41
2018-03-28T15:09:08.164Z,75.76
2018-03-28T15:15:14.355Z,76.44
2018-03-28T15:21:20.163Z,77.80
2018-03-28T15:27:24.669Z,78.97
2018-03-28T15:33:29.406Z,79.52
2018-03-28T15:39:34.726Z,80.34
2018-03-28T15:45:39.266Z,81.15
2018-03-28T15:51:43.959Z,81.46
2018-03-28T15:57:49.942Z,82.33
2018-03-28T16:03:54.652Z,82.47
2018-03-28T16:09:59.287Z,82.62
2018-03-28T16:16:04.890Z,82.62
2018-03-28T16:22:09.714Z,82.66
2018-03-28T16:28:14.206Z,82.01
2018-03-28T16:34:19.432Z,82.17
2018-03-28T16:40:23.935Z,81.97
2018-03-28T16:46:28.436Z,83.12
2018-03-28T16:52:33.708Z,83.26
2018-03-28T16:58:38.218Z,83.40
2018-03-28T17:04:42.727Z,83.53
2018-03-28T17:10:47.853Z,83.74
2018-03-28T17:16:53.305Z,84.01
2018-03-28T17:22:58.129Z,83.83
2018-03-28T17:29:03.510Z,84.01
2018-03-28T17:35:08.023Z,84.41
2018-03-28T17:41:13.795Z,84.40
2018-03-28T17:47:18.782Z,84.49
2018-03-28T17:53:23.279Z,84.57
2018-03-28T17:59:27.789Z,84.59
2018-03-28T18:05:33.074Z,84.04
2018-03-28T18:11:37.556Z,83.68
2018-03-28T18:17:42.829Z,82.81
2018-03-28T18:23:47.842Z,82.94
2018-03-28T18:29:52.517Z,82.58
2018-03-28T18:35:56.994Z,82.76
2018-03-28T18:42:01.654Z,82.18
2018-03-28T18:48:06.361Z,82.54
2018-03-28T18:54:10.827Z,83.28
2018-03-28T19:00:15.313Z,83.09
2018-03-28T19:06:19.998Z,83.28
2018-03-28T19:12:24.518Z,83.27
2018-03-28T19:18:29.038Z,83.34
2018-03-28T19:24:33.526Z,83.47
2018-03-28T19:30:38.017Z,83.59
2018-03-28T19:36:42.571Z,83.10
2018-03-28T19:42:47.576Z,83.65
2018-03-28T19:48:52.196Z,83.82
2018-03-28T19:54:57.537Z,83.79
2018-03-28T20:01:02.408Z,83.70
2018-03-28T20:07:06.900Z,82.96
2018-03-28T20:13:11.443Z,83.32
2018-03-28T20:19:15.929Z,83.51
2018-03-28T20:25:20.909Z,83.00
2018-03-28T20:31:25.449Z,82.96
2018-03-28T20:37:31.661Z,83.22
2018-03-28T20:43:36.329Z,83.29
2018-03-28T20:49:40.881Z,83.30
2018-03-28T20:55:45.378Z,83.70
2018-03-28T21:01:51.471Z,83.82
2018-03-28T21:07:56.051Z,83.20
2018-03-28T21:14:00.674Z,83.47
2018-03-28T21:20:05.220Z,84.17
2018-03-28T21:26:10.515Z,84.39
2018-03-28T21:32:15.071Z,84.92
2018-03-28T21:51:24.560Z,87.03
2018-03-28T21:57:29.324Z,86.84
2018-03-28T22:03:33.900Z,85.64
2018-03-28T22:09:38.410Z,84.64
2018-03-28T22:15:43.142Z,84.24
2018-03-28T22:21:49.164Z,81.93
2018-03-28T22:27:53.888Z,81.91
2018-03-28T22:33:58.388Z,80.73
2018-03-28T22:40:03.782Z,80.04
2018-03-28T22:46:09.236Z,80.50
2018-03-28T22:52:13.870Z,79.85
2018-03-28T22:58:18.757Z,80.80
2018-03-28T23:04:23.533Z,80.49
2018-03-28T23:10:28.013Z,81.53
2018-03-28T23:16:33.311Z,82.85
2018-03-28T23:22:39.314Z,82.85
2018-03-28T23:28:44.396Z,83.68
2018-03-28T23:34:50.783Z,82.50
2018-03-28T23:40:55.524Z,82.41
2018-03-28T23:47:00.820Z,79.56
2018-03-28T23:53:06.389Z,78.96
2018-03-28T23:59:10.958Z,80.27
